HDS weather

Public forecast

Using degrees Celsius for public forecast. Weather courtesy of forecast.io.

Current aviation weather report (METAR) for Hoedspruit Air Force Base Airport

Retrieved 2020/08/13 02:00 UTC (3 minutes ago):

FAHS 130200Z AUTO 30002KT //// // ////// 17/05 Q1016

Aviation forecast (TAF) for Hoedspruit Air Force Base Airport

Forecast is more than 12 hours old.

Retrieved 2017/05/23 04:01 UTC (3 years ago):

TAF FAHS 230300Z 2304/2315 VRB02KT CAVOK TX29/2312ZTN12/2304Z